• Join FlightAware (Why Join?)
  • Login
  • US Flag 
02:49PM EST


 

Airport Tracker/Info


-or-


 

Live Flight TrackerFlight Track Log ✈ FIN767 ✈ 10-Mar-2014 ✈ EFHK / HEL - LOWW / VIE

Flight Track Log - Related Links

Times and Time Zones

All times are in EDT time to prevent confusion due to time zone crossing. See the FIN767 flight status page for this flight to view local times or setup timezone preferences in your user account.

Time Position Orientation Groundspeed Altitude Reporting Facility
EDT Latitude Longitude Course Direction KTS MPH feet Rate Location/Type
11:25AM 60.0454 24.7050 205° Southwest  Level Estimated
11:26AM 59.9547 24.6199 205° Southwest  Level Estimated
11:27AM 59.8639 24.5352 205° Southwest  Level Estimated
11:28AM 59.7731 24.4510 205° Southwest  Level Estimated
11:29AM 59.6822 24.3672 205° Southwest  Level Estimated
11:30AM 59.5877 24.2806 205° Southwest  Level Estimated
11:31AM 59.4931 24.1945 205° Southwest  Level Estimated
11:32AM 59.3984 24.1088 205° Southwest  Level Estimated
11:33AM 59.3037 24.0236 205° Southwest  Level Estimated
11:34AM 59.2090 23.9389 205° Southwest  Level Estimated
11:35AM 59.1141 23.8547 205° Southwest  Level Estimated
11:36AM 59.0193 23.7710 204° Southwest  Level Estimated
11:37AM 58.9243 23.6877 204° Southwest  Level Estimated
11:38AM 58.8293 23.6048 204° Southwest  Level Estimated
11:39AM 58.7343 23.5224 204° Southwest  Level Estimated
11:40AM 58.6392 23.4405 204° Southwest  Level Estimated
11:41AM 58.5441 23.3590 204° Southwest  Level Estimated
11:42AM 58.4489 23.2779 204° Southwest  Level Estimated
11:43AM 58.3537 23.1973 204° Southwest  Level Estimated
11:44AM 58.2584 23.1171 204° Southwest  Level Estimated
11:45AM 58.1630 23.0374 204° Southwest  Level Estimated
11:46AM 58.0676 22.9580 204° Southwest  Level Estimated
11:47AM 57.9722 22.8791 204° Southwest  Level Estimated
11:48AM 57.8767 22.8006 204° Southwest  Level Estimated
11:49AM 57.7812 22.7226 204° Southwest  Level Estimated
11:50AM 57.6856 22.6449 203° Southwest  Level Estimated
11:51AM 57.5900 22.5677 203° Southwest  Level Estimated
11:52AM 57.4943 22.4908 203° Southwest  Level Estimated
11:53AM 57.3986 22.4144 203° Southwest  Level Estimated
11:54AM 57.3028 22.3383 203° Southwest  Level Estimated
11:55AM 57.2070 22.2627 203° Southwest  Level Estimated
11:56AM 57.1111 22.1874 203° Southwest  Level Estimated
11:57AM 57.0152 22.1126 203° Southwest  Level Estimated
11:58AM 56.9193 22.0381 203° Southwest  Level Estimated
11:59AM 56.8233 21.9640 203° Southwest  Level Estimated
12:00PM 56.7272 21.8903 203° Southwest  Level Estimated
12:01PM 56.6311 21.8169 203° Southwest  Level Estimated
12:02PM 56.5350 21.7439 203° Southwest  Level Estimated
12:03PM 56.4389 21.6713 203° Southwest  Level Estimated
12:04PM 56.3427 21.5991 203° Southwest  Level Estimated
12:05PM 56.2464 21.5272 203° Southwest  Level Estimated
12:06PM 56.1501 21.4557 202° Southwest  Level Estimated
12:07PM 56.0538 21.3846 202° Southwest  Level Estimated
12:08PM 55.9574 21.3137 202° Southwest  Level Estimated
12:09PM 55.8610 21.2433 202° Southwest  Level Estimated
12:10PM 55.7645 21.1732 202° Southwest  Level Estimated
12:11PM 55.6680 21.1034 202° Southwest  Level Estimated
12:12PM 55.5715 21.0340 202° Southwest  Level Estimated
12:13PM 55.4749 20.9650 202° Southwest  Level Estimated
12:14PM 55.3783 20.8962 202° Southwest  Level Estimated
12:15PM 55.2817 20.8278 202° Southwest  Level Estimated
12:16PM 55.1850 20.7598 202° Southwest  Level Estimated
12:17PM 55.0883 20.6920 202° Southwest  Level Estimated
12:18PM 54.9915 20.6246 202° Southwest  Level Estimated
12:19PM 54.8947 20.5575 202° Southwest  Level Estimated
12:20PM 54.7979 20.4908 202° Southwest  Level Estimated
12:21PM 54.7010 20.4243 202° Southwest  Level Estimated
12:22PM 54.6041 20.3582 202° Southwest  Level Estimated
12:23PM 54.5071 20.2924 202° Southwest  Level Estimated
12:24PM 54.4102 20.2269 201° Southwest  Level Estimated
12:25PM 54.3131 20.1617 201° Southwest  Level Estimated
12:26PM 54.2161 20.0968 201° Southwest  Level Estimated
12:27PM 54.1190 20.0322 201° Southwest  Level Estimated
12:28PM 54.0219 19.9679 201° Southwest  Level Estimated
12:29PM 53.9247 19.9040 201° Southwest  Level Estimated
12:30PM 53.8275 19.8403 201° Southwest  Level Estimated
12:31PM 53.7303 19.7769 201° Southwest  Level Estimated
12:32PM 53.6331 19.7138 201° Southwest  Level Estimated
12:33PM 53.5358 19.6510 201° Southwest  Level Estimated
12:34PM 53.4385 19.5885 201° Southwest  Level Estimated
12:35PM 53.3411 19.5262 201° Southwest  Level Estimated
12:36PM 53.2437 19.4643 201° Southwest  Level Estimated
12:37PM 53.1463 19.4026 201° Southwest  Level Estimated
12:38PM 53.0489 19.3412 201° Southwest  Level Estimated
12:39PM 52.9514 19.2801 201° Southwest  Level Estimated
12:40PM 52.8531 19.2188 201° Southwest  Level Estimated
12:41PM 52.7548 19.1577 201° Southwest  Level Estimated
12:42PM 52.6564 19.0970 201° Southwest  Level Estimated
12:43PM 52.5580 19.0365 201° Southwest  Level Estimated
12:44PM 52.4596 18.9763 200° South  Level Estimated
12:45PM 52.3612 18.9163 200° South  Level Estimated
12:46PM 52.2627 18.8566 200° South  Level Estimated
12:47PM 52.1642 18.7972 200° South  Level Estimated
12:48PM 52.0657 18.7380 200° South  Level Estimated
12:49PM 51.9671 18.6791 200° South  Level Estimated
12:50PM 51.8685 18.6205 200° South  Level Estimated
12:51PM 51.7699 18.5621 200° South  Level Estimated
12:52PM 51.6712 18.5040 200° South  Level Estimated
12:53PM 51.5725 18.4461 200° South  Level Estimated
12:54PM 51.4738 18.3885 200° South  Level Estimated
12:55PM 51.3751 18.3311 200° South  Level Estimated
12:56PM 51.2763 18.2739 200° South  Level Estimated
12:57PM 51.1775 18.2171 200° South  Level Estimated
12:58PM 51.0787 18.1604 200° South  Level Estimated
12:59PM 50.9799 18.1040 200° South  Level Estimated
01:00PM 50.8810 18.0478 200° South  Level Estimated
01:01PM 50.7821 17.9919 200° South  Level Estimated
01:02PM 50.6832 17.9362 200° South  Level Estimated
01:03PM 50.5842 17.8808 200° South  Level Estimated
01:04PM 50.4852 17.8255 200° South  Level Estimated
01:05PM 50.3862 17.7705 200° South  Level Estimated
01:06PM 50.2872 17.7158 199° South  Level Estimated
01:07PM 50.1881 17.6612 199° South  Level Estimated
01:08PM 50.0890 17.6069 199° South  Level Estimated
01:09PM 49.9899 17.5529 199° South  Level Estimated
01:10PM 49.8908 17.4990 199° South  Level Estimated
01:11PM 49.7916 17.4454 199° South  Level Estimated
01:12PM 49.6924 17.3919 199° South  Level Estimated
01:13PM 49.5932 17.3387 199° South  Level Estimated
01:14PM 49.4940 17.2857 199° South  Level Estimated
01:15PM 49.3947 17.2330 199° South  Level Estimated
01:16PM 49.2955 17.1804 199° South  Level Estimated
01:17PM 49.1962 17.1280 199° South  Level Estimated
01:18PM 49.0968 17.0759 199° South  Level Estimated
01:19PM 48.9975 17.0240 199° South  Level Estimated
01:20PM 48.8981 16.9722 199° South  Level Estimated
01:21PM 48.7987 16.9207 199° South  Level Estimated
01:22PM 48.6993 16.8694 199° South  Level Estimated
01:23PM 48.5912 16.8139 199° South  Level Estimated
01:24PM 48.4831 16.7586 199° South  Level Estimated
01:25PM 48.3749 16.7035 199° South  Level Estimated
01:26PM 48.2668 16.6486 199° South  Level Estimated
01:27PM 48.1586 16.5940 199° South  Level Estimated
01:28PM 48.1103 16.5697 199° South  Level Estimated
01:29PM 48.1103 16.5697 North  Level Estimated
01:30PM 48.1103 16.5697 North  Level Estimated
01:31PM 48.1103 16.5697 North  Level Estimated
01:32PM 48.1103 16.5697 North  Level Estimated
01:33PM 48.1103 16.5697 North  Level Estimated